Time;durP1;ratioP1;P1;durP2;ratioP2;P2;SDS_P1;SDS_P2;PMS_P1;PMS_P2;Temp;Humidity;BMP_temperature;BMP_pressure;BME280_temperature;BME280_humidity;BME280_pressure;Samples;Min_cycle;Max_cycle;Signal;HPM_P1;HPM_P2
2023/09/08 00:01:03;;;;;;;7.70;6.03;;;23.00;99.90;;;;;;5073962;28;20872;-66
2023/09/08 00:03:30;;;;;;;6.63;6.00;;;23.00;99.90;;;;;;5084728;28;20260;-66
2023/09/08 00:05:57;;;;;;;6.93;6.40;;;22.90;99.90;;;;;;5084764;28;20230;-66
2023/09/08 00:08:24;;;;;;;7.47;5.97;;;22.90;99.90;;;;;;5081861;28;20264;-66
2023/09/08 00:10:51;;;;;;;7.22;6.63;;;22.80;99.90;;;;;;5064864;28;20204;-66
2023/09/08 00:13:20;;;;;;;7.10;6.10;;;22.80;99.90;;;;;;5068754;28;20230;-66
2023/09/08 00:15:46;;;;;;;6.93;6.38;;;22.70;99.90;;;;;;5084765;28;20611;-66
2023/09/08 00:18:13;;;;;;;7.00;6.30;;;22.70;99.90;;;;;;5084542;28;20297;-65
2023/09/08 00:20:41;;;;;;;7.07;6.38;;;22.70;99.90;;;;;;5083315;28;20287;-66
2023/09/08 00:23:08;;;;;;;7.70;6.53;;;22.70;99.90;;;;;;5104602;28;20290;-65
2023/09/08 00:25:35;;;;;;;7.25;6.47;;;22.70;99.90;;;;;;5077190;28;20199;-66
2023/09/08 00:28:03;;;;;;;7.57;6.82;;;22.70;99.90;;;;;;5088041;28;20207;-66
2023/09/08 00:30:31;;;;;;;7.70;6.93;;;22.70;99.90;;;;;;5088219;28;20234;-66
2023/09/08 00:32:58;;;;;;;7.40;6.70;;;22.60;99.90;;;;;;5087825;28;20294;-66
2023/09/08 00:35:25;;;;;;;8.57;6.75;;;22.60;99.90;;;;;;5086527;28;20305;-66
2023/09/08 00:37:52;;;;;;;8.00;6.90;;;22.60;99.90;;;;;;5067902;28;20222;-66
2023/09/08 00:40:19;;;;;;;7.65;6.95;;;22.50;99.90;;;;;;5067948;28;20302;-65
2023/09/08 00:42:46;;;;;;;7.13;6.43;;;22.50;99.90;;;;;;5075128;28;20222;-65
2023/09/08 00:45:13;;;;;;;9.10;7.10;;;22.50;99.90;;;;;;5088156;28;20298;-66
2023/09/08 00:47:41;;;;;;;7.70;6.72;;;22.50;99.90;;;;;;5088265;28;20207;-66
2023/09/08 00:50:09;;;;;;;7.78;7.07;;;22.40;99.90;;;;;;5088051;28;20205;-66
2023/09/08 00:52:36;;;;;;;7.75;7.05;;;22.40;99.90;;;;;;5078498;28;20290;-66
2023/09/08 00:55:04;;;;;;;7.28;6.68;;;22.30;99.90;;;;;;5067971;28;20207;-66
2023/09/08 00:57:31;;;;;;;7.63;6.85;;;22.30;99.90;;;;;;5068393;28;20314;-66
2023/09/08 00:59:59;;;;;;;6.90;6.22;;;22.30;99.90;;;;;;5067914;28;20574;-66
2023/09/08 01:02:26;;;;;;;7.68;6.90;;;22.30;99.90;;;;;;5075529;28;20323;-66
2023/09/08 01:04:54;;;;;;;7.70;7.00;;;22.20;99.90;;;;;;5087823;28;20206;-66
2023/09/08 01:07:22;;;;;;;11.13;7.07;;;22.20;99.90;;;;;;5086238;28;20293;-66
2023/09/08 01:09:50;;;;;;;8.38;7.68;;;22.20;99.90;;;;;;5091863;28;20202;-66
2023/09/08 01:12:17;;;;;;;8.13;7.43;;;22.10;99.90;;;;;;5088043;28;20264;-66
2023/09/08 01:14:43;;;;;;;7.95;7.10;;;22.10;99.90;;;;;;5087854;28;20830;-66
2023/09/08 01:17:12;;;;;;;8.52;7.80;;;22.00;99.90;;;;;;5091548;28;20704;-66
2023/09/08 01:19:39;;;;;;;8.55;7.40;;;22.00;99.90;;;;;;5067801;28;20203;-66
2023/09/08 01:23:12;;;;;;;7.68;6.90;;;21.90;99.90;;;;;;5067506;28;20295;-66
2023/09/08 01:25:45;;;;;;;7.45;6.85;;;21.80;99.90;;;;;;4928070;29;20243;-66
2023/09/08 01:28:13;;;;;;;9.55;7.38;;;21.80;99.90;;;;;;4935252;28;20267;-66
2023/09/08 01:30:40;;;;;;;8.15;7.10;;;21.70;99.90;;;;;;5018772;28;20577;-66
2023/09/08 01:33:08;;;;;;;8.68;7.82;;;21.70;99.90;;;;;;5067765;28;20335;-66
2023/09/08 01:35:36;;;;;;;8.25;7.57;;;21.70;99.90;;;;;;5070070;28;20213;-65
2023/09/08 01:38:03;;;;;;;7.95;7.30;;;21.60;99.90;;;;;;5080432;28;20199;-66
2023/09/08 01:40:30;;;;;;;7.68;6.97;;;21.60;99.90;;;;;;5107680;28;20338;-66
2023/09/08 01:42:58;;;;;;;8.48;7.68;;;21.60;99.90;;;;;;5107531;28;20450;-66
2023/09/08 01:45:25;;;;;;;8.05;7.30;;;21.50;99.90;;;;;;5093579;28;20209;-66
2023/09/08 01:47:52;;;;;;;9.63;7.10;;;21.50;99.90;;;;;;5082796;28;20231;-65
2023/09/08 01:50:21;;;;;;;8.65;7.78;;;21.50;99.90;;;;;;5066986;28;20580;-66
2023/09/08 01:52:48;;;;;;;7.75;7.10;;;21.50;99.90;;;;;;5066938;28;20211;-66
2023/09/08 01:55:16;;;;;;;7.38;6.78;;;21.40;99.90;;;;;;5067085;28;20215;-66
2023/09/08 01:57:43;;;;;;;7.97;7.18;;;21.40;99.90;;;;;;5083792;28;20268;-66
2023/09/08 02:00:12;;;;;;;8.90;7.20;;;21.30;99.90;;;;;;5086669;28;20302;-66
2023/09/08 02:02:39;;;;;;;7.43;6.80;;;21.30;99.90;;;;;;5087254;28;20221;-65
2023/09/08 02:05:07;;;;;;;7.68;6.90;;;21.30;99.90;;;;;;5086547;28;20689;-66
2023/09/08 02:07:34;;;;;;;8.07;7.28;;;21.30;99.90;;;;;;5067420;28;20208;-66
2023/09/08 02:10:01;;;;;;;7.50;6.90;;;21.30;99.90;;;;;;5066595;28;20299;-66
2023/09/08 02:12:28;;;;;;;7.32;6.72;;;21.20;99.90;;;;;;5066108;28;20207;-66
2023/09/08 02:14:55;;;;;;;7.95;7.15;;;21.20;99.90;;;;;;5099157;28;20203;-66
2023/09/08 02:17:23;;;;;;;8.20;7.28;;;21.20;99.90;;;;;;5070676;28;20200;-66
2023/09/08 02:19:50;;;;;;;7.05;6.40;;;21.20;99.90;;;;;;5065979;28;20298;-67
2023/09/08 02:22:17;;;;;;;7.63;6.88;;;21.20;99.90;;;;;;5070703;28;20294;-66
2023/09/08 02:24:44;;;;;;;7.15;6.55;;;21.30;99.90;;;;;;5070901;28;20688;-66
2023/09/08 02:27:11;;;;;;;7.43;6.72;;;21.30;99.90;;;;;;5086078;28;20711;-66
2023/09/08 02:29:38;;;;;;;7.55;6.75;;;21.40;99.90;;;;;;5070100;28;20242;-66
2023/09/08 02:32:05;;;;;;;7.30;6.55;;;21.40;99.90;;;;;;5064662;28;20390;-66
2023/09/08 02:34:37;;;;;;;7.70;6.55;;;21.40;99.90;;;;;;5065214;28;20214;-66
2023/09/08 02:37:05;;;;;;;7.05;6.45;;;21.40;99.90;;;;;;5064197;28;20188;-66
2023/09/08 02:39:33;;;;;;;7.45;6.85;;;21.50;99.90;;;;;;5087740;28;20217;-66
2023/09/08 02:42:00;;;;;;;7.75;6.47;;;21.50;99.90;;;;;;5067662;28;20249;-66
2023/09/08 02:44:27;;;;;;;7.63;6.78;;;21.50;99.90;;;;;;5065451;28;20322;-66
2023/09/08 02:46:54;;;;;;;7.45;6.90;;;21.50;99.90;;;;;;5084360;28;20242;-66
2023/09/08 02:49:21;;;;;;;8.57;6.50;;;21.50;99.90;;;;;;5076466;28;20243;-66
2023/09/08 02:51:49;;;;;;;8.48;6.70;;;21.50;99.90;;;;;;5066237;28;20203;-66
2023/09/08 02:54:16;;;;;;;7.68;6.97;;;21.50;99.90;;;;;;5064211;28;20207;-66
2023/09/08 02:56:43;;;;;;;8.18;7.47;;;21.50;99.90;;;;;;5084266;28;20256;-66
2023/09/08 02:59:10;;;;;;;8.43;7.47;;;21.50;99.90;;;;;;5084504;28;20213;-66
2023/09/08 03:01:37;;;;;;;8.02;7.25;;;21.50;99.90;;;;;;5085109;28;20296;-66
2023/09/08 03:04:04;;;;;;;8.02;7.30;;;21.60;99.90;;;;;;5085110;28;20234;-66
2023/09/08 03:06:31;;;;;;;7.82;6.75;;;21.60;99.90;;;;;;5085411;28;20199;-66
2023/09/08 03:09:02;;;;;;;8.13;7.28;;;21.50;99.90;;;;;;5077686;28;20212;-64
2023/09/08 03:11:29;;;;;;;9.27;8.38;;;21.50;99.90;;;;;;5084363;28;20286;-65
2023/09/08 03:13:56;;;;;;;8.60;7.75;;;21.50;99.90;;;;;;5085017;28;20268;-65
2023/09/08 03:16:23;;;;;;;8.73;8.02;;;21.50;99.90;;;;;;5085052;28;20209;-65
2023/09/08 03:18:50;;;;;;;10.55;8.38;;;21.50;99.90;;;;;;5085011;28;20293;-65
2023/09/08 03:21:17;;;;;;;8.07;7.28;;;21.40;99.90;;;;;;5078339;28;20221;-65
2023/09/08 03:23:45;;;;;;;8.85;8.10;;;21.40;99.90;;;;;;5065065;28;20320;-65
2023/09/08 03:26:13;;;;;;;8.13;7.43;;;21.40;99.90;;;;;;5065532;28;20230;-65
2023/09/08 03:28:43;;;;;;;9.45;8.02;;;21.40;99.90;;;;;;5065144;28;20298;-65
2023/09/08 03:31:10;;;;;;;8.13;7.43;;;21.40;99.90;;;;;;5065404;28;20210;-65
2023/09/08 03:33:37;;;;;;;7.72;7.20;;;21.40;99.90;;;;;;5065260;28;20231;-65
2023/09/08 03:36:04;;;;;;;7.60;7.05;;;21.40;99.90;;;;;;5064585;28;20210;-65
2023/09/08 03:38:31;;;;;;;8.02;7.28;;;21.30;99.90;;;;;;5087390;28;20242;-65
2023/09/08 03:40:58;;;;;;;8.25;7.38;;;21.40;99.90;;;;;;5105905;28;20317;-65
2023/09/08 03:43:26;;;;;;;7.78;7.13;;;21.40;99.90;;;;;;5105550;28;20317;-65
2023/09/08 03:45:53;;;;;;;8.20;7.60;;;21.30;99.90;;;;;;5105630;28;20216;-65
2023/09/08 03:48:20;;;;;;;8.20;7.60;;;21.30;99.90;;;;;;5105983;28;20293;-67
2023/09/08 03:50:47;;;;;;;8.02;7.43;;;21.20;99.90;;;;;;5105414;28;20741;-65
2023/09/08 03:53:14;;;;;;;8.30;7.53;;;21.30;99.90;;;;;;5105321;28;20241;-65
2023/09/08 03:55:41;;;;;;;7.78;7.03;;;21.20;99.90;;;;;;5105578;28;20202;-65
2023/09/08 03:58:08;;;;;;;8.05;7.28;;;21.20;99.90;;;;;;5102490;28;20232;-65
2023/09/08 04:00:36;;;;;;;8.05;7.18;;;21.10;99.90;;;;;;5086363;28;20230;-65
2023/09/08 04:03:03;;;;;;;8.40;7.60;;;21.10;99.90;;;;;;5088943;28;22613;-65
2023/09/08 04:05:31;;;;;;;8.38;7.57;;;21.10;99.90;;;;;;5088768;28;20321;-65
2023/09/08 04:07:57;;;;;;;9.40;7.35;;;21.10;99.90;;;;;;5068510;28;20570;-65
2023/09/08 04:10:24;;;;;;;8.07;7.38;;;21.10;99.90;;;;;;5068634;28;20211;-65
2023/09/08 04:12:51;;;;;;;9.40;7.80;;;21.00;99.90;;;;;;5068597;28;20298;-65
2023/09/08 04:15:18;;;;;;;8.27;7.45;;;21.00;99.90;;;;;;5068615;28;20210;-65
2023/09/08 04:17:47;;;;;;;8.20;7.40;;;21.00;99.90;;;;;;5068741;28;20235;-65
2023/09/08 04:20:15;;;;;;;8.68;7.88;;;21.00;99.90;;;;;;5068386;28;20286;-65
2023/09/08 04:22:42;;;;;;;9.35;7.85;;;20.90;99.90;;;;;;5068246;28;20226;-65
2023/09/08 04:25:10;;;;;;;7.80;7.10;;;21.00;99.90;;;;;;5068303;28;20326;-65
2023/09/08 04:27:37;;;;;;;8.20;7.60;;;20.90;99.90;;;;;;5068249;28;20242;-65
2023/09/08 04:30:04;;;;;;;8.75;7.93;;;20.90;99.90;;;;;;5068330;28;20222;-65
2023/09/08 04:32:31;;;;;;;8.00;7.13;;;20.80;99.90;;;;;;5068445;28;20207;-65
2023/09/08 04:34:59;;;;;;;8.95;8.02;;;20.80;99.90;;;;;;5067918;28;20701;-65
2023/09/08 04:37:26;;;;;;;7.85;7.10;;;20.80;99.90;;;;;;5068050;28;20290;-65
2023/09/08 04:39:53;;;;;;;9.40;7.97;;;20.80;99.90;;;;;;5068162;28;20250;-65
2023/09/08 04:42:19;;;;;;;10.27;7.95;;;20.80;99.90;;;;;;5068388;28;20294;-65
2023/09/08 04:44:47;;;;;;;8.32;7.25;;;20.80;99.90;;;;;;5067654;28;20270;-65
2023/09/08 04:47:13;;;;;;;8.60;7.80;;;20.80;99.90;;;;;;5067771;28;20322;-65
2023/09/08 04:49:41;;;;;;;8.57;7.65;;;20.80;99.90;;;;;;5067831;28;20330;-65
2023/09/08 04:52:11;;;;;;;8.30;7.60;;;20.80;99.90;;;;;;5067913;28;20254;-65
2023/09/08 04:54:37;;;;;;;9.38;7.95;;;20.70;99.90;;;;;;5070289;28;20265;-65
2023/09/08 04:57:05;;;;;;;8.73;7.60;;;20.70;99.90;;;;;;5088171;28;20233;-66
2023/09/08 04:59:32;;;;;;;12.32;8.25;;;20.70;99.90;;;;;;5087856;28;20331;-65
2023/09/08 05:01:59;;;;;;;8.52;7.65;;;20.70;99.90;;;;;;5087851;28;20724;-65
2023/09/08 05:04:26;;;;;;;9.60;8.02;;;20.70;99.90;;;;;;5087773;28;20327;-65
2023/09/08 05:06:53;;;;;;;8.75;7.75;;;20.70;99.90;;;;;;5088154;28;20264;-65
2023/09/08 05:09:21;;;;;;;8.43;7.65;;;20.70;99.90;;;;;;5087736;28;20310;-65
2023/09/08 05:11:48;;;;;;;7.82;7.13;;;20.70;99.90;;;;;;5086926;28;20293;-65
2023/09/08 05:14:15;;;;;;;9.32;8.25;;;20.70;99.90;;;;;;5076731;28;20211;-65
2023/09/08 05:16:46;;;;;;;8.27;7.57;;;20.70;99.90;;;;;;5067599;28;20294;-65
2023/09/08 05:19:13;;;;;;;9.32;7.80;;;20.70;99.90;;;;;;5067648;28;20265;-65
2023/09/08 05:21:41;;;;;;;9.60;8.45;;;20.70;99.90;;;;;;5067287;28;20210;-65
2023/09/08 05:24:08;;;;;;;10.25;7.75;;;20.80;99.90;;;;;;5075104;28;20316;-65
2023/09/08 05:26:38;;;;;;;8.60;7.70;;;20.80;99.90;;;;;;5087541;28;20210;-65
2023/09/08 05:29:05;;;;;;;9.57;8.43;;;20.80;99.90;;;;;;5087016;28;20199;-65
2023/09/08 05:31:32;;;;;;;9.18;8.27;;;20.80;99.90;;;;;;5087509;28;20282;-65
2023/09/08 05:33:59;;;;;;;8.70;8.00;;;20.80;99.90;;;;;;5087369;28;20818;-65
2023/09/08 05:36:26;;;;;;;7.97;7.32;;;20.80;99.90;;;;;;5087519;28;20230;-65
2023/09/08 05:38:53;;;;;;;8.13;7.63;;;20.80;99.90;;;;;;5094005;28;20224;-65
2023/09/08 05:41:20;;;;;;;8.65;7.80;;;20.80;99.90;;;;;;5107542;28;20214;-65
2023/09/08 05:43:48;;;;;;;9.50;8.02;;;20.80;99.90;;;;;;5107532;28;20325;-65
2023/09/08 05:46:16;;;;;;;9.10;7.93;;;20.80;99.90;;;;;;5107474;28;20644;-65
2023/09/08 05:48:43;;;;;;;10.55;8.40;;;20.80;99.90;;;;;;5107519;28;20206;-65
2023/09/08 05:51:10;;;;;;;9.93;8.55;;;20.80;99.90;;;;;;5092979;28;20309;-65
2023/09/08 05:53:39;;;;;;;11.87;7.70;;;20.80;99.90;;;;;;5066661;28;20214;-65
2023/09/08 05:56:06;;;;;;;10.77;8.40;;;20.80;99.90;;;;;;5066256;28;20239;-65
2023/09/08 05:58:33;;;;;;;9.00;8.20;;;20.80;99.90;;;;;;5066179;28;20213;-65
2023/09/08 06:01:02;;;;;;;9.50;8.65;;;20.90;99.90;;;;;;5066192;28;20239;-65
2023/09/08 06:03:29;;;;;;;13.52;8.25;;;20.90;99.90;;;;;;5066420;28;20315;-65
2023/09/08 06:05:57;;;;;;;10.50;8.50;;;20.90;99.90;;;;;;5066272;28;20302;-65
2023/09/08 06:08:24;;;;;;;9.98;7.68;;;20.90;99.90;;;;;;5066838;28;20301;-65
2023/09/08 06:10:51;;;;;;;8.68;7.88;;;20.90;99.90;;;;;;5080500;28;20229;-65
2023/09/08 06:13:18;;;;;;;9.95;8.32;;;20.90;99.90;;;;;;5086249;28;20999;-65
2023/09/08 06:15:45;;;;;;;9.00;7.65;;;20.90;99.90;;;;;;5086532;28;20664;-65
2023/09/08 06:18:13;;;;;;;9.00;8.20;;;20.90;99.90;;;;;;5086528;28;20209;-65
2023/09/08 06:20:45;;;;;;;9.63;8.48;;;21.00;99.90;;;;;;5086386;28;20741;-65
2023/09/08 06:23:12;;;;;;;8.73;7.63;;;21.00;99.90;;;;;;5086582;28;20295;-65
2023/09/08 06:25:39;;;;;;;9.63;7.95;;;21.00;99.90;;;;;;5086257;28;20292;-65
2023/09/08 06:28:06;;;;;;;8.43;7.72;;;21.00;99.90;;;;;;5086074;28;20293;-68
2023/09/08 06:30:33;;;;;;;8.67;7.47;;;21.00;99.90;;;;;;5086211;28;20302;-65
2023/09/08 06:33:00;;;;;;;13.35;8.15;;;21.00;99.90;;;;;;5086177;28;20298;-65
2023/09/08 06:35:28;;;;;;;8.68;7.65;;;21.10;99.90;;;;;;5084156;28;20674;-65
2023/09/08 06:37:57;;;;;;;9.07;8.13;;;21.10;99.90;;;;;;5065764;28;20218;-65
2023/09/08 06:40:24;;;;;;;9.60;8.02;;;21.20;99.90;;;;;;5104431;28;20220;-66
2023/09/08 06:42:51;;;;;;;8.55;7.68;;;21.20;99.90;;;;;;5105846;28;20293;-65
2023/09/08 06:45:18;;;;;;;7.80;7.05;;;21.30;99.90;;;;;;5105758;28;20345;-65
2023/09/08 06:47:45;;;;;;;9.38;7.10;;;21.30;99.90;;;;;;5095342;28;20653;-65
2023/09/08 06:50:12;;;;;;;8.95;7.45;;;21.40;99.90;;;;;;5085321;28;20746;-65
2023/09/08 06:52:40;;;;;;;8.77;7.80;;;21.40;99.90;;;;;;5085842;28;20305;-65
2023/09/08 06:55:09;;;;;;;7.85;7.15;;;21.40;99.90;;;;;;5085291;28;21165;-65
2023/09/08 06:57:36;;;;;;;8.05;7.30;;;21.50;99.90;;;;;;5085781;28;20229;-66
2023/09/08 07:00:07;;;;;;;8.13;7.35;;;21.50;99.90;;;;;;5085405;28;20202;-65
2023/09/08 07:02:34;;;;;;;8.32;7.38;;;21.60;99.90;;;;;;5085565;28;20368;-65
2023/09/08 07:05:06;;;;;;;8.48;7.60;;;21.50;99.90;;;;;;5085243;28;20231;-65
2023/09/08 07:07:33;;;;;;;7.88;7.13;;;21.60;99.90;;;;;;5085715;28;20206;-65
2023/09/08 07:10:01;;;;;;;8.27;7.60;;;21.60;99.90;;;;;;5101042;28;20694;-65
2023/09/08 07:12:28;;;;;;;9.43;7.30;;;21.70;99.90;;;;;;5105614;28;20259;-65
2023/09/08 07:14:55;;;;;;;8.38;6.97;;;21.70;99.90;;;;;;5105768;28;20230;-65
2023/09/08 07:17:23;;;;;;;8.43;7.18;;;21.80;99.90;;;;;;5105765;28;20285;-65
2023/09/08 07:19:49;;;;;;;7.78;6.97;;;21.80;99.90;;;;;;5105689;28;20209;-66
2023/09/08 07:22:16;;;;;;;7.38;6.72;;;21.90;99.90;;;;;;5105615;28;20301;-65
2023/09/08 07:24:44;;;;;;;8.38;6.75;;;21.90;99.90;;;;;;5105094;28;20771;-65
2023/09/08 07:27:13;;;;;;;9.15;6.63;;;22.00;99.90;;;;;;5087338;28;20576;-65
2023/09/08 07:29:40;;;;;;;8.00;6.60;;;22.10;99.90;;;;;;5084899;28;20214;-67
2023/09/08 07:32:08;;;;;;;7.00;6.38;;;22.20;99.90;;;;;;5085098;28;20301;-66
2023/09/08 07:34:35;;;;;;;8.30;6.60;;;22.20;99.90;;;;;;5085107;28;20305;-65
2023/09/08 07:37:02;;;;;;;9.10;6.43;;;22.30;99.90;;;;;;5069799;28;20248;-65
2023/09/08 07:39:30;;;;;;;7.57;6.80;;;22.40;99.90;;;;;;5088723;28;20224;-65
2023/09/08 07:41:57;;;;;;;7.00;6.35;;;22.40;99.90;;;;;;5105148;28;20738;-65
2023/09/08 07:44:25;;;;;;;7.72;6.68;;;22.50;99.90;;;;;;5079830;28;20231;-65
2023/09/08 07:46:52;;;;;;;7.03;6.32;;;22.60;99.90;;;;;;5064499;28;20930;-65
2023/09/08 07:49:20;;;;;;;7.55;6.15;;;22.60;99.90;;;;;;5064728;28;21039;-65
2023/09/08 07:51:47;;;;;;;7.25;6.55;;;22.70;99.90;;;;;;5086654;28;20217;-65
2023/09/08 07:54:14;;;;;;;6.90;5.80;;;22.80;99.90;;;;;;5105356;28;20241;-65
2023/09/08 07:56:41;;;;;;;6.82;6.10;;;22.80;99.90;;;;;;5104941;28;20365;-65
2023/09/08 07:59:08;;;;;;;8.70;7.72;;;22.90;99.90;;;;;;5104788;28;20206;-65
2023/09/08 08:01:36;;;;;;;8.18;7.15;;;22.90;99.90;;;;;;5104610;28;20333;-65
2023/09/08 08:04:04;;;;;;;12.80;6.43;;;23.00;99.90;;;;;;5084996;28;20206;-65
2023/09/08 08:06:31;;;;;;;6.80;5.80;;;23.10;99.90;;;;;;5084926;28;20206;-65
2023/09/08 08:08:58;;;;;;;6.20;5.70;;;23.10;99.90;;;;;;5084965;28;20289;-65
2023/09/08 08:11:25;;;;;;;6.82;6.32;;;23.20;99.90;;;;;;5084693;28;20297;-65
2023/09/08 08:13:52;;;;;;;6.47;5.57;;;23.20;99.90;;;;;;5084542;28;20213;-65
2023/09/08 08:16:21;;;;;;;6.65;5.93;;;23.30;99.90;;;;;;5084764;28;20308;-65
2023/09/08 08:18:49;;;;;;;5.63;5.22;;;23.40;99.90;;;;;;5084809;28;20217;-65
2023/09/08 08:21:16;;;;;;;5.90;5.43;;;23.40;99.90;;;;;;5084917;28;20302;-65
2023/09/08 08:23:43;;;;;;;8.38;6.00;;;23.50;99.90;;;;;;5084981;28;20214;-65
2023/09/08 08:26:10;;;;;;;6.10;5.68;;;23.60;99.90;;;;;;5075205;28;20671;-65
2023/09/08 08:28:37;;;;;;;7.03;5.43;;;23.60;99.90;;;;;;5064208;28;20238;-65
2023/09/08 08:31:04;;;;;;;5.63;5.13;;;23.70;99.90;;;;;;5063698;28;20307;-65
2023/09/08 08:33:31;;;;;;;6.78;5.28;;;23.70;99.90;;;;;;5064065;28;20203;-66
2023/09/08 08:36:00;;;;;;;6.88;5.50;;;23.80;99.90;;;;;;5064047;28;20207;-65
2023/09/08 08:38:27;;;;;;;6.65;5.22;;;23.90;99.90;;;;;;5067105;28;20643;-65
2023/09/08 08:40:54;;;;;;;6.53;5.82;;;23.90;99.90;;;;;;5084361;28;20218;-65
2023/09/08 08:43:22;;;;;;;6.57;6.00;;;24.00;99.90;;;;;;5084536;28;20231;-65
2023/09/08 08:45:50;;;;;;;7.30;5.57;;;24.00;99.90;;;;;;5084214;28;20268;-65
2023/09/08 08:48:21;;;;;;;7.97;5.63;;;24.10;99.90;;;;;;5086255;28;20207;-65
2023/09/08 08:50:49;;;;;;;6.13;5.35;;;24.20;99.90;;;;;;5087612;28;20198;-65
2023/09/08 08:53:18;;;;;;;11.07;5.00;;;24.20;99.90;;;;;;5087880;28;20206;-65
2023/09/08 08:55:46;;;;;;;5.88;5.38;;;24.30;99.90;;;;;;5087805;28;20199;-65
2023/09/08 08:58:15;;;;;;;6.63;5.85;;;24.30;99.90;;;;;;5090311;28;20207;-65
2023/09/08 09:00:42;;;;;;;5.68;4.90;;;24.40;99.90;;;;;;5107972;28;20238;-65
2023/09/08 09:03:10;;;;;;;6.35;5.75;;;24.40;99.90;;;;;;5108294;28;20669;-66
2023/09/08 09:05:38;;;;;;;6.78;5.45;;;24.50;99.90;;;;;;5108385;28;20231;-66
2023/09/08 09:08:06;;;;;;;5.68;5.10;;;24.60;99.90;;;;;;5108152;28;20212;-65
2023/09/08 09:10:35;;;;;;;5.82;5.28;;;24.60;99.90;;;;;;5067845;28;20642;-65
2023/09/08 09:13:02;;;;;;;6.43;5.70;;;24.70;99.90;;;;;;5067271;28;20619;-65
2023/09/08 09:15:30;;;;;;;5.45;4.95;;;24.80;99.90;;;;;;5067465;28;20293;-66
2023/09/08 09:18:05;;;;;;;8.00;4.80;;;24.80;99.90;;;;;;5067163;28;20411;-65
2023/09/08 09:20:32;;;;;;;8.25;5.57;;;24.90;99.90;;;;;;5067366;28;20289;-66
2023/09/08 09:22:59;;;;;;;7.45;5.43;;;25.00;99.90;;;;;;5067141;28;20211;-65
2023/09/08 09:25:28;;;;;;;6.68;5.75;;;25.10;99.90;;;;;;5086354;28;20223;-65
2023/09/08 09:27:58;;;;;;;6.28;5.68;;;25.10;99.90;;;;;;5087007;28;20207;-66
2023/09/08 09:30:26;;;;;;;6.53;5.03;;;25.20;99.90;;;;;;5087944;28;20207;-65
2023/09/08 09:33:01;;;;;;;5.97;5.47;;;25.30;99.90;;;;;;5087339;28;20286;-66
2023/09/08 09:35:42;;;;;;;5.82;5.38;;;25.30;99.90;;;;;;5087268;28;20213;-65
2023/09/08 09:38:09;;;;;;;5.97;5.57;;;25.40;99.90;;;;;;5067490;28;20757;-65
2023/09/08 09:40:36;;;;;;;6.32;5.05;;;25.40;99.90;;;;;;5107822;28;20202;-65
2023/09/08 09:43:05;;;;;;;8.20;5.30;;;25.50;99.90;;;;;;5106902;28;20234;-66
2023/09/08 09:45:33;;;;;;;7.68;5.25;;;25.60;99.90;;;;;;5087451;28;20222;-65
2023/09/08 09:48:00;;;;;;;5.65;5.15;;;25.60;99.90;;;;;;5087193;28;20674;-66
2023/09/08 09:50:31;;;;;;;7.97;6.07;;;25.70;99.90;;;;;;5087141;28;20340;-66
2023/09/08 09:52:59;;;;;;;7.35;5.20;;;25.80;99.90;;;;;;5087093;28;20210;-66
2023/09/08 09:55:27;;;;;;;7.63;5.57;;;25.90;99.90;;;;;;5076666;28;20214;-66
2023/09/08 09:58:00;;;;;;;6.38;5.00;;;26.00;99.90;;;;;;5065919;28;20237;-66
2023/09/08 10:00:28;;;;;;;6.30;5.65;;;26.10;99.90;;;;;;5066549;28;20195;-66
2023/09/08 10:02:56;;;;;;;10.20;6.07;;;26.10;99.90;;;;;;5066164;28;20196;-66
2023/09/08 10:05:25;;;;;;;5.35;4.93;;;26.30;99.90;;;;;;5066055;28;20989;-66
2023/09/08 10:07:52;;;;;;;5.82;5.07;;;26.30;99.90;;;;;;5066362;28;20211;-66
2023/09/08 10:10:20;;;;;;;5.97;5.30;;;26.50;99.90;;;;;;5066170;28;20260;-66
2023/09/08 10:12:53;;;;;;;8.48;5.57;;;26.50;99.90;;;;;;5066400;28;20314;-65
2023/09/08 10:15:22;;;;;;;5.80;5.30;;;26.60;99.90;;;;;;5066596;28;20963;-65
2023/09/08 10:17:55;;;;;;;5.95;5.32;;;26.70;99.90;;;;;;5068492;28;20287;-67
2023/09/08 10:20:23;;;;;;;4.82;4.43;;;26.90;99.90;;;;;;5086199;28;20690;-65
2023/09/08 10:22:57;;;;;;;6.82;5.40;;;26.90;99.90;;;;;;5086158;28;20214;-66
2023/09/08 10:25:29;;;;;;;6.18;5.55;;;26.90;99.90;;;;;;5086058;28;20314;-66
2023/09/08 10:27:57;;;;;;;8.63;5.00;;;27.00;99.90;;;;;;5085973;28;20194;-66
2023/09/08 10:30:24;;;;;;;6.60;5.03;;;27.00;99.90;;;;;;5086030;28;20238;-66
2023/09/08 10:32:53;;;;;;;6.20;5.60;;;27.20;99.90;;;;;;5085319;28;20297;-66
2023/09/08 10:35:20;;;;;;;7.35;4.90;;;27.30;99.90;;;;;;5086314;28;20238;-66
2023/09/08 10:37:47;;;;;;;6.18;5.70;;;27.40;99.90;;;;;;5086245;28;20309;-66
2023/09/08 10:40:24;;;;;;;6.75;5.88;;;27.50;99.90;;;;;;5086330;28;20289;-66
2023/09/08 10:43:07;;;;;;;5.93;5.15;;;27.70;99.90;;;;;;5085560;28;20318;-66
2023/09/08 10:45:34;;;;;;;5.90;4.68;;;27.80;99.40;;;;;;5086050;28;20229;-66
2023/09/08 10:48:03;;;;;;;7.28;5.30;;;27.90;98.90;;;;;;5085090;28;20214;-66
2023/09/08 10:50:35;;;;;;;6.35;5.07;;;28.00;98.90;;;;;;5085893;28;20231;-66
2023/09/08 10:53:10;;;;;;;5.15;4.68;;;28.10;98.80;;;;;;5085246;28;20211;-66
2023/09/08 10:55:38;;;;;;;5.40;5.00;;;28.30;98.60;;;;;;5085301;28;20198;-66
2023/09/08 10:58:06;;;;;;;5.80;4.88;;;28.30;98.60;;;;;;5085351;28;20313;-66
2023/09/08 11:00:45;;;;;;;5.65;5.18;;;28.40;98.60;;;;;;5085280;28;20360;-66
2023/09/08 11:03:14;;;;;;;5.78;5.28;;;28.50;98.70;;;;;;5085219;28;20199;-66
2023/09/08 11:05:44;;;;;;;8.15;4.40;;;28.60;97.80;;;;;;5085291;28;20245;-66
2023/09/08 11:08:11;;;;;;;5.60;5.18;;;28.70;98.10;;;;;;5085923;28;20207;-66
2023/09/08 11:10:40;;;;;;;4.68;4.38;;;28.90;97.60;;;;;;5104828;28;20209;-66
2023/09/08 11:13:07;;;;;;;5.53;5.03;;;28.90;97.60;;;;;;5105609;28;20206;-66
2023/09/08 11:15:34;;;;;;;5.38;4.88;;;28.90;97.20;;;;;;5090936;28;20207;-66
2023/09/08 11:18:07;;;;;;;8.02;4.70;;;28.90;97.30;;;;;;5085583;28;20252;-66
2023/09/08 11:20:36;;;;;;;5.15;4.60;;;29.00;97.10;;;;;;5085768;28;20197;-66
2023/09/08 11:23:04;;;;;;;5.60;4.88;;;29.10;97.10;;;;;;5085159;28;20217;-66
2023/09/08 11:25:34;;;;;;;4.50;4.10;;;29.20;96.20;;;;;;5085100;28;21243;-66
2023/09/08 11:28:01;;;;;;;4.80;4.40;;;29.30;96.50;;;;;;5084663;28;20665;-66
2023/09/08 11:30:30;;;;;;;5.32;4.40;;;29.40;96.20;;;;;;5084459;28;20771;-65
2023/09/08 11:32:58;;;;;;;4.78;4.38;;;29.60;95.60;;;;;;5085118;28;20623;-66
2023/09/08 11:35:28;;;;;;;7.25;4.22;;;29.60;95.10;;;;;;5084687;28;20302;-66
2023/09/08 11:38:01;;;;;;;7.72;4.18;;;29.70;94.80;;;;;;5065026;28;20302;-66
2023/09/08 11:40:29;;;;;;;4.20;3.85;;;29.80;95.20;;;;;;5084745;28;20225;-66
2023/09/08 11:42:56;;;;;;;4.57;4.18;;;29.80;95.30;;;;;;5084602;28;20206;-66
2023/09/08 11:45:23;;;;;;;4.70;4.22;;;29.90;95.10;;;;;;5084610;28;20296;-66
2023/09/08 11:47:50;;;;;;;5.70;5.13;;;30.00;94.70;;;;;;5075187;28;20215;-66
2023/09/08 11:50:19;;;;;;;6.88;6.22;;;30.00;94.90;;;;;;5064784;28;20239;-66
2023/09/08 11:52:48;;;;;;;4.80;4.40;;;30.20;94.80;;;;;;5064948;28;20319;-66
2023/09/08 11:55:17;;;;;;;4.28;4.03;;;30.30;95.20;;;;;;5064808;28;20326;-66
2023/09/08 11:57:47;;;;;;;4.95;4.55;;;30.40;95.20;;;;;;5065050;28;20207;-66
2023/09/08 12:00:17;;;;;;;4.63;4.22;;;30.40;94.30;;;;;;5064498;28;20662;-66
2023/09/08 12:02:45;;;;;;;4.82;4.40;;;30.50;94.10;;;;;;5064978;28;20206;-66
2023/09/08 12:05:21;;;;;;;5.55;4.28;;;30.60;93.50;;;;;;5064131;28;20808;-66
2023/09/08 12:07:48;;;;;;;5.05;3.85;;;30.70;93.60;;;;;;5064542;28;20214;-66
2023/09/08 12:10:17;;;;;;;4.63;4.22;;;30.80;93.90;;;;;;5099095;28;20212;-66
2023/09/08 12:12:46;;;;;;;4.78;4.47;;;30.90;93.70;;;;;;5084132;28;20677;-66
2023/09/08 12:15:13;;;;;;;6.13;4.10;;;31.00;93.50;;;;;;5084423;28;20234;-66
2023/09/08 12:17:49;;;;;;;4.97;4.60;;;31.20;93.80;;;;;;5084339;28;20790;-66
2023/09/08 12:20:17;;;;;;;7.32;4.43;;;31.20;93.00;;;;;;5084796;28;20677;-66
2023/09/08 12:22:50;;;;;;;6.57;4.60;;;31.30;93.00;;;;;;5087965;28;20293;-66
2023/09/08 12:25:18;;;;;;;4.78;4.47;;;31.50;92.80;;;;;;5088468;28;20218;-66
2023/09/08 12:27:46;;;;;;;4.57;4.20;;;31.50;93.10;;;;;;5088169;28;20338;-66
2023/09/08 12:30:18;;;;;;;5.10;4.70;;;31.60;92.60;;;;;;5088065;28;20218;-66
2023/09/08 12:32:48;;;;;;;4.93;4.53;;;31.70;92.20;;;;;;5088386;28;20195;-66
2023/09/08 12:35:22;;;;;;;4.70;4.30;;;31.80;92.10;;;;;;5088765;28;20219;-66
2023/09/08 12:37:52;;;;;;;6.03;4.80;;;31.90;91.90;;;;;;5088332;28;20195;-66
2023/09/08 12:40:21;;;;;;;4.72;4.40;;;32.00;91.00;;;;;;5069613;28;20286;-66
2023/09/08 12:42:48;;;;;;;4.97;4.32;;;32.00;91.30;;;;;;5067649;28;20583;-66
2023/09/08 12:45:15;;;;;;;4.50;4.18;;;32.00;91.20;;;;;;5086827;28;20217;-66
2023/09/08 12:47:42;;;;;;;4.75;4.13;;;32.20;91.10;;;;;;5087779;28;20230;-66
2023/09/08 12:50:09;;;;;;;5.75;4.60;;;32.20;91.10;;;;;;5088324;28;20569;-66